createdAt,value
2022-10-07T00:01:11.535Z,6.67
2022-10-07T00:03:40.794Z,6.10
2022-10-07T00:06:18.664Z,6.50
2022-10-07T00:08:52.571Z,5.33
2022-10-07T00:11:28.250Z,5.60
2022-10-07T00:14:05.267Z,5.53
2022-10-07T00:16:41.578Z,5.73
2022-10-07T00:19:14.210Z,5.43
2022-10-07T00:21:41.966Z,6.43
2022-10-07T00:24:11.294Z,5.27
2022-10-07T00:26:39.163Z,5.20
2022-10-07T00:29:07.657Z,4.90
2022-10-07T00:31:38.620Z,5.53
2022-10-07T00:34:06.366Z,5.20
2022-10-07T00:36:37.999Z,4.90
2022-10-07T00:39:17.469Z,5.20
2022-10-07T00:41:53.608Z,5.10
2022-10-07T00:44:42.324Z,4.70
2022-10-07T00:47:32.155Z,5.80
2022-10-07T00:50:26.924Z,4.93
2022-10-07T00:53:02.993Z,5.70
2022-10-07T00:55:32.816Z,4.60
2022-10-07T00:58:09.863Z,5.77
2022-10-07T01:00:40.844Z,4.37
2022-10-07T01:03:08.795Z,5.70
2022-10-07T01:05:36.451Z,5.10
2022-10-07T01:08:04.747Z,4.57
2022-10-07T01:11:14.077Z,5.17
2022-10-07T01:14:16.877Z,4.50
2022-10-07T01:17:15.603Z,5.80
2022-10-07T01:20:53.973Z,5.30
2022-10-07T01:24:07.565Z,4.80
2022-10-07T01:27:11.760Z,4.30
2022-10-07T01:30:08.211Z,5.93
2022-10-07T01:32:54.134Z,4.70
2022-10-07T01:35:32.924Z,5.00
2022-10-07T01:38:09.809Z,5.50
2022-10-07T01:40:56.832Z,5.87
2022-10-07T01:43:26.069Z,6.03
2022-10-07T01:45:55.828Z,6.03
2022-10-07T01:48:23.944Z,5.50
2022-10-07T01:50:54.183Z,6.20
2022-10-07T01:54:02.531Z,7.80
2022-10-07T01:57:14.247Z,5.87
2022-10-07T02:00:08.219Z,5.53
2022-10-07T02:03:13.599Z,6.07
2022-10-07T02:06:01.616Z,6.30
2022-10-07T02:08:49.026Z,5.47
2022-10-07T02:11:28.858Z,5.13
2022-10-07T02:14:23.328Z,5.73
2022-10-07T02:17:20.631Z,5.87
2022-10-07T02:19:56.657Z,6.50
2022-10-07T02:22:29.369Z,5.50
2022-10-07T02:24:59.784Z,6.80
2022-10-07T02:27:38.624Z,5.70
2022-10-07T02:30:18.524Z,5.30
2022-10-07T02:32:57.435Z,6.30
2022-10-07T02:35:40.708Z,4.87
2022-10-07T02:38:15.845Z,5.23
2022-10-07T02:41:32.737Z,5.50
2022-10-07T02:44:39.701Z,5.57
2022-10-07T02:47:39.204Z,6.40
2022-10-07T02:50:14.868Z,4.97
2022-10-07T02:52:46.137Z,5.43
2022-10-07T02:55:24.802Z,4.27
2022-10-07T02:58:04.060Z,5.00
2022-10-07T03:00:42.579Z,4.93
2022-10-07T03:03:10.904Z,4.30
2022-10-07T03:05:49.465Z,4.50
2022-10-07T03:08:20.191Z,4.27
2022-10-07T03:10:49.017Z,4.50
2022-10-07T03:13:16.777Z,4.87
2022-10-07T03:15:49.968Z,5.37
2022-10-07T03:18:28.595Z,4.97
2022-10-07T03:21:06.481Z,4.43
2022-10-07T03:23:35.004Z,4.50
2022-10-07T03:26:02.926Z,4.20
2022-10-07T03:28:35.664Z,4.40
2022-10-07T03:31:12.353Z,4.50
2022-10-07T03:33:45.744Z,5.60
2022-10-07T03:36:13.860Z,4.20
2022-10-07T03:38:44.257Z,4.30
2022-10-07T03:41:12.733Z,4.30
2022-10-07T03:43:40.704Z,5.03
2022-10-07T03:46:10.664Z,5.30
2022-10-07T03:48:39.595Z,5.37
2022-10-07T03:51:08.340Z,4.60
2022-10-07T03:53:40.388Z,5.23
2022-10-07T03:56:09.164Z,4.10
2022-10-07T03:58:39.457Z,5.80
2022-10-07T04:01:16.473Z,5.03
2022-10-07T04:04:00.539Z,4.73
2022-10-07T04:06:31.304Z,6.03
2022-10-07T04:09:03.538Z,5.33
2022-10-07T04:11:31.718Z,5.67
2022-10-07T04:14:00.844Z,5.70
2022-10-07T04:16:31.949Z,5.13
2022-10-07T04:19:02.968Z,5.20
2022-10-07T04:21:30.560Z,6.13
2022-10-07T04:23:59.193Z,5.70
2022-10-07T04:26:27.667Z,6.20
2022-10-07T04:28:55.318Z,7.30
2022-10-07T04:31:24.524Z,5.90
2022-10-07T04:33:58.491Z,5.43
2022-10-07T04:36:32.172Z,6.00
2022-10-07T04:39:09.728Z,5.80
2022-10-07T04:41:43.151Z,5.53
2022-10-07T04:44:16.526Z,6.40
2022-10-07T04:46:56.995Z,6.10
2022-10-07T04:49:27.402Z,5.90
2022-10-07T04:51:56.967Z,6.33
2022-10-07T04:54:29.508Z,5.37
2022-10-07T04:56:57.275Z,6.33
2022-10-07T04:59:30.077Z,6.50
2022-10-07T05:01:59.229Z,7.90
2022-10-07T05:04:28.485Z,6.13
2022-10-07T05:06:57.675Z,6.43
2022-10-07T05:09:26.214Z,6.20
2022-10-07T05:11:57.536Z,6.40
2022-10-07T05:14:25.255Z,6.60
2022-10-07T05:16:54.172Z,6.20
2022-10-07T05:19:26.027Z,6.70
2022-10-07T05:21:54.976Z,6.37
2022-10-07T05:24:22.774Z,6.03
2022-10-07T05:26:51.873Z,7.10
2022-10-07T05:29:19.725Z,6.77
2022-10-07T05:31:51.500Z,6.10
2022-10-07T05:34:22.821Z,6.80
2022-10-07T05:36:50.428Z,5.67
2022-10-07T05:39:18.119Z,6.00
2022-10-07T05:41:51.984Z,5.93
2022-10-07T05:44:25.253Z,7.30
2022-10-07T05:46:55.361Z,6.70
2022-10-07T05:49:23.553Z,6.87
2022-10-07T05:51:52.156Z,7.40
2022-10-07T05:54:20.961Z,7.37
2022-10-07T05:56:49.564Z,7.10
2022-10-07T05:59:20.564Z,6.40
2022-10-07T06:01:49.455Z,6.30
2022-10-07T06:04:21.584Z,7.10
2022-10-07T06:06:51.862Z,6.63
2022-10-07T06:09:39.494Z,6.50
2022-10-07T06:12:31.725Z,6.50
2022-10-07T06:15:01.992Z,6.87
2022-10-07T06:17:30.121Z,6.77
2022-10-07T06:20:00.451Z,6.80
2022-10-07T06:22:28.664Z,7.00
2022-10-07T06:25:02.209Z,7.77
2022-10-07T06:27:31.727Z,7.10
2022-10-07T06:29:59.806Z,7.20
2022-10-07T06:32:31.209Z,7.57
2022-10-07T06:35:00.337Z,7.43
2022-10-07T06:37:32.998Z,8.47
2022-10-07T06:40:01.417Z,6.87
2022-10-07T06:42:33.269Z,5.73
2022-10-07T06:45:34.503Z,7.20
2022-10-07T06:48:03.209Z,6.70
2022-10-07T06:50:32.108Z,6.43
2022-10-07T06:53:00.404Z,6.17
2022-10-07T06:55:31.046Z,5.20
2022-10-07T06:57:58.957Z,5.00
2022-10-07T07:00:27.708Z,5.40
2022-10-07T07:02:55.987Z,6.70
2022-10-07T07:05:24.184Z,3.87
2022-10-07T07:07:52.335Z,4.47
2022-10-07T07:10:19.871Z,3.73
2022-10-07T07:12:55.110Z,4.67
2022-10-07T07:15:23.623Z,4.70
2022-10-07T07:17:51.365Z,4.07
2022-10-07T07:20:20.573Z,4.03
2022-10-07T07:22:49.583Z,5.40
2022-10-07T07:25:17.551Z,3.90
2022-10-07T07:27:48.828Z,4.00
2022-10-07T07:30:23.216Z,4.40
2022-10-07T07:32:52.381Z,4.47
2022-10-07T07:35:20.172Z,5.30
2022-10-07T07:37:48.188Z,4.37
2022-10-07T07:40:17.715Z,3.80
2022-10-07T07:42:49.328Z,3.80
2022-10-07T07:45:18.353Z,4.47
2022-10-07T07:47:49.507Z,4.60
2022-10-07T07:50:20.886Z,3.67
2022-10-07T07:52:51.891Z,4.10
2022-10-07T07:55:24.350Z,3.50
2022-10-07T07:57:52.137Z,2.90
2022-10-07T08:00:20.234Z,3.03
2022-10-07T08:03:00.276Z,2.73
2022-10-07T08:05:28.112Z,3.20
2022-10-07T08:07:58.428Z,3.00
2022-10-07T08:10:27.230Z,2.53
2022-10-07T08:12:56.049Z,2.57
2022-10-07T08:15:25.084Z,2.93
2022-10-07T08:17:53.861Z,3.43
2022-10-07T08:20:21.731Z,2.67
2022-10-07T08:22:49.966Z,2.50
2022-10-07T08:25:18.472Z,2.97
2022-10-07T08:27:47.183Z,3.10
2022-10-07T08:30:16.267Z,3.03
2022-10-07T08:32:45.659Z,3.40
2022-10-07T08:35:13.384Z,2.93
2022-10-07T08:37:41.087Z,2.63
2022-10-07T08:40:17.710Z,3.07
2022-10-07T08:42:47.734Z,3.20
2022-10-07T08:45:32.574Z,3.40
2022-10-07T08:48:20.605Z,3.70
2022-10-07T08:51:50.357Z,2.97
2022-10-07T08:54:28.084Z,2.67
2022-10-07T08:57:20.534Z,3.27
2022-10-07T09:00:03.792Z,3.10
2022-10-07T09:03:50.245Z,2.80
2022-10-07T09:06:42.440Z,3.80
2022-10-07T09:09:25.669Z,3.20
2022-10-07T09:11:57.854Z,2.80
2022-10-07T09:14:50.623Z,3.23
2022-10-07T09:17:48.441Z,3.40
2022-10-07T09:20:26.937Z,3.33
2022-10-07T09:22:59.187Z,3.23
2022-10-07T09:25:33.080Z,3.83
2022-10-07T09:28:01.664Z,3.23
2022-10-07T09:30:29.675Z,2.90
2022-10-07T09:32:58.460Z,3.53
2022-10-07T09:35:31.936Z,3.30
2022-10-07T09:38:04.388Z,3.10
2022-10-07T09:41:07.567Z,3.50
2022-10-07T09:43:37.289Z,2.77
2022-10-07T09:46:05.157Z,3.17
2022-10-07T09:48:35.037Z,3.80
2022-10-07T09:51:27.118Z,2.70
2022-10-07T09:54:16.959Z,3.40
2022-10-07T09:56:47.921Z,3.07
2022-10-07T09:59:36.883Z,3.27
2022-10-07T10:02:27.398Z,3.30
2022-10-07T10:04:58.531Z,3.63
2022-10-07T10:07:36.741Z,3.93
2022-10-07T10:10:23.469Z,3.70
2022-10-07T10:12:58.849Z,4.47
2022-10-07T10:15:36.555Z,4.20
2022-10-07T10:18:35.037Z,3.40
2022-10-07T10:21:30.798Z,4.20
2022-10-07T10:24:13.737Z,4.23
2022-10-07T10:27:43.060Z,3.00
2022-10-07T10:30:22.575Z,2.93
2022-10-07T10:33:32.832Z,3.00
2022-10-07T10:36:24.161Z,3.10
2022-10-07T10:39:37.368Z,2.50
2022-10-07T10:42:21.369Z,3.53
2022-10-07T10:45:32.047Z,3.30
2022-10-07T10:48:38.010Z,4.10
2022-10-07T10:51:28.287Z,3.10
2022-10-07T10:54:38.953Z,3.30
2022-10-07T10:57:47.647Z,3.30
2022-10-07T11:00:23.127Z,3.40
2022-10-07T11:03:34.215Z,3.73
2022-10-07T11:06:14.240Z,3.83
2022-10-07T11:08:47.562Z,3.60
2022-10-07T11:11:23.512Z,4.00
2022-10-07T11:14:14.527Z,2.60
2022-10-07T11:16:56.796Z,3.03
2022-10-07T11:19:46.427Z,3.13
2022-10-07T11:22:36.521Z,2.83
2022-10-07T11:25:29.639Z,2.60
2022-10-07T11:28:21.840Z,3.30
2022-10-07T11:31:37.618Z,2.83
2022-10-07T11:34:32.947Z,3.97
2022-10-07T11:37:23.367Z,3.23
2022-10-07T11:39:53.822Z,2.90
2022-10-07T11:42:34.042Z,3.27
2022-10-07T11:45:13.045Z,3.27
2022-10-07T11:47:53.793Z,3.33
2022-10-07T11:50:41.306Z,3.40
2022-10-07T11:53:24.265Z,2.97
2022-10-07T11:56:18.581Z,2.37
2022-10-07T11:58:55.825Z,2.57
2022-10-07T12:01:26.466Z,2.90
2022-10-07T12:04:25.299Z,2.90
2022-10-07T12:07:39.826Z,3.90
2022-10-07T12:10:33.742Z,3.00
2022-10-07T12:13:21.559Z,3.37
2022-10-07T12:15:51.727Z,3.43
2022-10-07T12:18:28.778Z,3.17
2022-10-07T12:21:05.313Z,3.07
2022-10-07T12:23:43.047Z,2.40
2022-10-07T12:26:34.825Z,2.83
2022-10-07T12:29:04.497Z,3.17
2022-10-07T12:31:32.409Z,2.87
2022-10-07T12:34:11.440Z,2.67
2022-10-07T12:36:41.154Z,2.70
2022-10-07T12:39:09.832Z,2.43
2022-10-07T12:41:40.482Z,2.90
2022-10-07T12:44:34.348Z,3.53
2022-10-07T12:47:29.883Z,2.60
2022-10-07T12:50:11.157Z,2.47
2022-10-07T12:52:54.864Z,2.00
2022-10-07T12:55:48.893Z,3.37
2022-10-07T12:59:26.379Z,2.40
2022-10-07T13:02:26.234Z,2.27
2022-10-07T13:06:31.620Z,2.53
2022-10-07T13:09:49.297Z,2.90
2022-10-07T13:12:47.171Z,3.20
2022-10-07T13:15:46.281Z,2.27
2022-10-07T13:18:21.205Z,2.80
2022-10-07T13:21:46.197Z,3.20
2022-10-07T13:24:23.710Z,2.50
2022-10-07T13:26:52.311Z,2.30
2022-10-07T13:29:33.119Z,3.67
2022-10-07T13:32:21.799Z,2.00
2022-10-07T13:34:49.878Z,2.83
2022-10-07T13:37:37.933Z,2.80
2022-10-07T13:40:35.593Z,2.90
2022-10-07T13:43:14.428Z,2.73
2022-10-07T13:45:46.377Z,3.17
2022-10-07T13:48:26.083Z,2.50
2022-10-07T13:50:59.496Z,2.50
2022-10-07T13:53:36.051Z,2.93
2022-10-07T13:56:40.444Z,2.30
2022-10-07T13:59:18.124Z,2.43
2022-10-07T14:01:55.432Z,2.40
2022-10-07T14:04:34.212Z,2.40
2022-10-07T14:07:20.131Z,2.63
2022-10-07T14:10:10.188Z,2.70
2022-10-07T14:12:51.252Z,2.67
2022-10-07T14:15:31.147Z,2.90
2022-10-07T14:18:12.363Z,2.07
2022-10-07T14:20:50.495Z,2.73
2022-10-07T14:23:35.124Z,2.00
2022-10-07T14:26:14.408Z,2.30
2022-10-07T14:28:44.200Z,3.00
2022-10-07T14:31:40.093Z,2.07
2022-10-07T14:34:38.261Z,1.90
2022-10-07T14:37:18.897Z,1.90
2022-10-07T14:39:53.382Z,2.37
2022-10-07T14:42:33.518Z,2.40
2022-10-07T14:45:08.340Z,2.27
2022-10-07T14:47:38.683Z,2.30
2022-10-07T14:50:07.417Z,2.40
2022-10-07T14:52:53.120Z,2.60
2022-10-07T14:55:29.981Z,3.33
2022-10-07T14:57:57.663Z,3.70
2022-10-07T15:00:29.680Z,2.80
2022-10-07T15:02:58.391Z,2.87
2022-10-07T15:05:27.012Z,2.87
2022-10-07T15:07:54.721Z,2.80
2022-10-07T15:10:26.763Z,2.53
2022-10-07T15:12:56.913Z,2.67
2022-10-07T15:15:24.657Z,2.30
2022-10-07T15:17:52.301Z,3.10
2022-10-07T15:20:20.113Z,3.00
2022-10-07T15:22:48.267Z,3.07
2022-10-07T15:25:18.122Z,2.40
2022-10-07T15:27:45.988Z,2.43
2022-10-07T15:30:14.151Z,2.70
2022-10-07T15:32:41.760Z,3.77
2022-10-07T15:35:10.090Z,2.30
2022-10-07T15:37:38.264Z,3.07
2022-10-07T15:40:07.899Z,3.00
2022-10-07T15:42:35.602Z,3.17
2022-10-07T15:45:03.323Z,2.77
2022-10-07T15:47:33.365Z,3.47
2022-10-07T15:50:01.856Z,4.00
2022-10-07T15:52:29.354Z,4.40
2022-10-07T15:54:57.721Z,3.40
2022-10-07T15:57:25.481Z,3.90
2022-10-07T15:59:54.839Z,4.90
2022-10-07T16:02:22.815Z,4.30
2022-10-07T16:04:51.125Z,3.23
2022-10-07T16:07:18.896Z,2.90
2022-10-07T16:09:46.776Z,2.73
2022-10-07T16:12:14.611Z,3.53
2022-10-07T16:14:42.226Z,3.60
2022-10-07T16:17:09.832Z,3.00
2022-10-07T16:19:37.426Z,4.07
2022-10-07T16:22:05.023Z,3.43
2022-10-07T16:24:35.378Z,3.50
2022-10-07T16:27:03.533Z,3.80
2022-10-07T16:29:49.665Z,3.00
2022-10-07T16:32:17.326Z,3.33
2022-10-07T16:34:45.381Z,5.10
2022-10-07T16:37:14.345Z,3.57
2022-10-07T16:39:42.150Z,3.37
2022-10-07T16:42:09.946Z,3.80
2022-10-07T16:44:38.872Z,3.30
2022-10-07T16:47:06.651Z,2.70
2022-10-07T16:49:36.510Z,3.50
2022-10-07T16:52:04.534Z,3.90
2022-10-07T16:54:35.523Z,3.90
2022-10-07T16:57:03.250Z,3.90
2022-10-07T16:59:31.196Z,4.00
2022-10-07T17:02:02.640Z,4.27
2022-10-07T17:04:30.533Z,4.40
2022-10-07T17:06:58.518Z,3.67
2022-10-07T17:09:26.160Z,4.47
2022-10-07T17:11:54.168Z,4.63
2022-10-07T17:14:23.747Z,4.43
2022-10-07T17:16:57.880Z,3.47
2022-10-07T17:19:29.180Z,3.97
2022-10-07T17:22:01.260Z,4.20
2022-10-07T17:24:30.134Z,4.00
2022-10-07T17:26:58.382Z,3.53
2022-10-07T17:29:26.488Z,3.60
2022-10-07T17:31:55.156Z,4.20
2022-10-07T17:34:23.557Z,4.93
2022-10-07T17:36:52.201Z,4.13
2022-10-07T17:39:20.008Z,4.40
2022-10-07T17:41:48.684Z,5.20
2022-10-07T17:44:16.867Z,4.00
2022-10-07T17:46:45.492Z,5.13
2022-10-07T17:49:13.671Z,4.53
2022-10-07T17:51:43.409Z,4.73
2022-10-07T17:54:14.145Z,5.17
2022-10-07T17:56:44.615Z,4.93
2022-10-07T17:59:12.420Z,4.20
2022-10-07T18:01:41.345Z,4.00
2022-10-07T18:04:22.422Z,4.33
2022-10-07T18:06:52.998Z,3.60
2022-10-07T18:09:22.879Z,4.50
2022-10-07T18:12:09.289Z,4.80
2022-10-07T18:14:56.130Z,4.60
2022-10-07T18:17:24.831Z,4.70
2022-10-07T18:19:53.190Z,4.30
2022-10-07T18:22:21.891Z,4.27
2022-10-07T18:24:49.995Z,4.00
2022-10-07T18:27:18.577Z,5.13
2022-10-07T18:29:46.230Z,4.80
2022-10-07T18:32:13.802Z,5.60
2022-10-07T18:34:41.494Z,5.17
2022-10-07T18:37:09.304Z,5.77
2022-10-07T18:39:37.669Z,5.13
2022-10-07T18:42:05.521Z,4.90
2022-10-07T18:44:33.654Z,5.50
2022-10-07T18:47:01.457Z,5.47
2022-10-07T18:49:28.996Z,5.10
2022-10-07T18:51:56.770Z,5.43
2022-10-07T18:54:24.530Z,6.13
2022-10-07T18:56:52.360Z,5.60
2022-10-07T18:59:20.738Z,6.47
2022-10-07T19:01:50.855Z,5.67
2022-10-07T19:04:20.093Z,5.30
2022-10-07T19:06:48.396Z,6.03
2022-10-07T19:09:22.188Z,5.13
2022-10-07T19:11:50.328Z,4.87
2022-10-07T19:14:20.164Z,4.60
2022-10-07T19:16:49.737Z,7.90
2022-10-07T19:19:24.700Z,5.43
2022-10-07T19:21:55.922Z,6.27
2022-10-07T19:24:43.724Z,5.17
2022-10-07T19:27:12.007Z,6.00
2022-10-07T19:29:39.554Z,5.63
2022-10-07T19:32:08.556Z,6.90
2022-10-07T19:34:37.260Z,7.47
2022-10-07T19:37:04.907Z,7.63
2022-10-07T19:39:32.893Z,7.30
2022-10-07T19:42:00.551Z,6.90
2022-10-07T19:44:28.442Z,8.40
2022-10-07T19:46:56.179Z,6.77
2022-10-07T19:49:24.645Z,8.10
2022-10-07T19:51:53.492Z,6.60
2022-10-07T19:54:21.113Z,6.27
2022-10-07T19:56:49.513Z,7.20
2022-10-07T19:59:17.117Z,7.47
2022-10-07T20:01:47.591Z,7.73
2022-10-07T20:04:21.094Z,7.30
2022-10-07T20:06:49.697Z,10.53
2022-10-07T20:09:20.477Z,7.73
2022-10-07T20:11:48.179Z,7.57
2022-10-07T20:14:16.346Z,8.03
2022-10-07T20:16:45.065Z,7.87
2022-10-07T20:19:19.685Z,7.90
2022-10-07T20:21:48.741Z,8.60
2022-10-07T20:24:17.340Z,7.83
2022-10-07T20:26:46.096Z,7.90
2022-10-07T20:29:16.226Z,8.33
2022-10-07T20:31:45.082Z,7.23
2022-10-07T20:34:20.277Z,8.37
2022-10-07T20:36:50.377Z,7.13
2022-10-07T20:39:40.499Z,7.80
2022-10-07T20:42:25.449Z,7.07
2022-10-07T20:44:54.097Z,6.77
2022-10-07T20:47:24.330Z,6.67
2022-10-07T20:49:55.509Z,6.53
2022-10-07T20:52:30.043Z,8.53
2022-10-07T20:54:58.676Z,7.10
2022-10-07T20:57:37.920Z,7.03
2022-10-07T21:00:16.510Z,6.87
2022-10-07T21:02:44.684Z,7.20
2022-10-07T21:05:13.949Z,7.03
2022-10-07T21:07:42.265Z,8.87
2022-10-07T21:10:09.893Z,7.80
2022-10-07T21:12:40.445Z,6.70
2022-10-07T21:15:08.975Z,8.00
2022-10-07T21:17:36.909Z,7.03
2022-10-07T21:20:06.254Z,6.80
2022-10-07T21:22:33.965Z,7.30
2022-10-07T21:25:01.534Z,6.90
2022-10-07T21:27:30.282Z,6.60
2022-10-07T21:29:58.227Z,6.37
2022-10-07T21:32:26.554Z,7.13
2022-10-07T21:34:56.165Z,7.43
2022-10-07T21:37:24.515Z,6.87
2022-10-07T21:39:52.111Z,7.47
2022-10-07T21:42:20.205Z,7.30
2022-10-07T21:44:47.779Z,7.40
2022-10-07T21:47:15.484Z,6.97
2022-10-07T21:49:43.022Z,5.70
2022-10-07T21:52:10.574Z,6.47
2022-10-07T21:54:38.508Z,5.93
2022-10-07T21:57:06.042Z,6.37
2022-10-07T21:59:35.241Z,6.90
2022-10-07T22:02:03.108Z,6.37
2022-10-07T22:04:30.897Z,6.23
2022-10-07T22:07:18.970Z,6.00
2022-10-07T22:09:46.636Z,6.03
2022-10-07T22:12:15.538Z,5.90
2022-10-07T22:14:43.208Z,7.87
2022-10-07T22:17:12.826Z,8.20
2022-10-07T22:19:41.179Z,6.33
2022-10-07T22:22:08.819Z,6.57
2022-10-07T22:24:37.006Z,6.53
2022-10-07T22:27:04.957Z,7.27
2022-10-07T22:29:32.657Z,6.73
2022-10-07T22:32:00.465Z,6.60
2022-10-07T22:34:49.410Z,6.13
2022-10-07T22:37:16.991Z,6.10
2022-10-07T22:39:45.415Z,6.10
2022-10-07T22:42:13.143Z,5.50
2022-10-07T22:44:40.859Z,6.30
2022-10-07T22:47:08.428Z,6.43
2022-10-07T22:49:36.173Z,7.00
2022-10-07T22:52:03.766Z,6.10
2022-10-07T22:54:32.105Z,5.30
2022-10-07T22:56:59.939Z,6.57
2022-10-07T22:59:27.525Z,5.80
2022-10-07T23:01:57.920Z,5.90
2022-10-07T23:04:26.489Z,4.93
2022-10-07T23:06:54.164Z,4.93
2022-10-07T23:09:22.129Z,4.80
2022-10-07T23:11:49.939Z,6.77
2022-10-07T23:14:17.971Z,4.80
2022-10-07T23:16:45.595Z,4.37
2022-10-07T23:19:13.504Z,4.87
2022-10-07T23:21:41.061Z,6.50
2022-10-07T23:24:10.121Z,7.00
2022-10-07T23:26:38.413Z,5.27
2022-10-07T23:29:07.814Z,5.63
2022-10-07T23:31:36.212Z,4.90
2022-10-07T23:34:06.442Z,5.77
2022-10-07T23:36:34.939Z,5.43
2022-10-07T23:39:03.319Z,5.63
2022-10-07T23:41:33.140Z,5.10
2022-10-07T23:44:03.560Z,5.17
2022-10-07T23:46:37.680Z,4.33
2022-10-07T23:49:06.293Z,5.10
2022-10-07T23:51:34.704Z,4.77
2022-10-07T23:54:04.821Z,4.40
2022-10-07T23:56:33.592Z,4.70
2022-10-07T23:59:02.475Z,5.37
